Time;durP1;ratioP1;P1;durP2;ratioP2;P2;SDS_P1;SDS_P2;PMS_P1;PMS_P2;Temp;Humidity;BMP_temperature;BMP_pressure;BME280_temperature;BME280_humidity;BME280_pressure;Samples;Min_cycle;Max_cycle;Signal;HPM_P1;HPM_P2
2022/11/30 00:00:33;;;;;;;54.67;22.33;;;6.60;99.90;;;;;;5004645;28;20342;-63
2022/11/30 00:02:59;;;;;;;57.42;23.90;;;6.70;99.90;;;;;;4976770;28;20505;-62
2022/11/30 00:05:25;;;;;;;60.90;23.90;;;6.60;99.90;;;;;;5001432;28;20045;-63
2022/11/30 00:07:53;;;;;;;65.10;24.48;;;6.60;99.90;;;;;;5000211;28;20038;-62
2022/11/30 00:10:20;;;;;;;62.42;24.83;;;6.60;99.90;;;;;;5008203;28;20117;-62
2022/11/30 00:12:45;;;;;;;66.50;24.77;;;6.60;99.90;;;;;;5005601;28;20038;-62
2022/11/30 00:15:13;;;;;;;68.28;24.60;;;6.60;99.90;;;;;;5008343;28;20033;-61
2022/11/30 00:17:43;;;;;;;58.83;24.60;;;6.60;99.90;;;;;;4990271;28;20131;-62
2022/11/30 00:20:09;;;;;;;68.00;26.63;;;6.60;99.90;;;;;;4990955;28;20042;-62
2022/11/30 00:22:35;;;;;;;68.88;24.23;;;6.60;99.90;;;;;;5005839;28;20046;-62
2022/11/30 00:25:02;;;;;;;58.22;24.67;;;6.60;99.90;;;;;;5007142;28;20092;-62
2022/11/30 00:27:31;;;;;;;63.42;25.15;;;6.60;99.90;;;;;;5001004;28;20088;-61
2022/11/30 00:29:57;;;;;;;67.97;25.37;;;6.60;99.90;;;;;;5002455;28;20081;-62
2022/11/30 00:32:25;;;;;;;66.03;26.30;;;6.60;99.90;;;;;;5004296;28;20097;-63
2022/11/30 00:34:51;;;;;;;73.18;26.48;;;6.60;99.90;;;;;;5003462;28;21110;-62
2022/11/30 00:37:16;;;;;;;62.25;24.58;;;6.60;99.90;;;;;;5000263;28;20037;-62
2022/11/30 00:39:42;;;;;;;73.93;26.65;;;6.60;99.90;;;;;;5005692;28;20041;-63
2022/11/30 00:42:08;;;;;;;64.47;24.65;;;6.60;99.90;;;;;;5003010;28;20470;-62
2022/11/30 00:44:33;;;;;;;65.13;25.67;;;6.60;99.90;;;;;;5004752;28;20205;-62
2022/11/30 00:46:59;;;;;;;66.25;25.45;;;6.60;99.90;;;;;;4996503;28;20050;-62
2022/11/30 00:49:24;;;;;;;70.35;25.45;;;6.60;99.90;;;;;;5001422;28;20053;-62
2022/11/30 00:51:51;;;;;;;67.03;24.65;;;6.60;99.90;;;;;;5006334;28;20046;-62
2022/11/30 00:54:16;;;;;;;72.28;26.27;;;6.60;99.90;;;;;;5000336;28;20037;-62
2022/11/30 00:56:42;;;;;;;68.38;24.90;;;6.50;99.90;;;;;;5001150;28;20052;-62
2022/11/30 00:59:07;;;;;;;69.65;25.75;;;6.50;99.90;;;;;;5002000;28;20399;-62
2022/11/30 01:01:34;;;;;;;67.22;25.23;;;6.50;99.90;;;;;;4999542;28;20052;-63
2022/11/30 01:04:00;;;;;;;72.78;26.40;;;6.50;99.90;;;;;;5002703;28;20046;-63
2022/11/30 01:06:25;;;;;;;69.60;27.73;;;6.50;99.90;;;;;;5004668;28;20820;-63
2022/11/30 01:08:51;;;;;;;73.00;26.33;;;6.50;99.90;;;;;;5003255;28;20180;-62
2022/11/30 01:11:25;;;;;;;71.65;26.40;;;6.50;99.90;;;;;;5007119;28;20505;-62
2022/11/30 01:13:51;;;;;;;77.30;25.98;;;6.40;99.90;;;;;;5001732;28;20116;-62
2022/11/30 01:16:20;;;;;;;66.28;25.27;;;6.40;99.90;;;;;;5006406;28;20057;-62
2022/11/30 01:18:46;;;;;;;68.30;25.10;;;6.40;99.90;;;;;;5004788;28;20053;-62
2022/11/30 01:21:15;;;;;;;68.60;25.95;;;6.40;99.90;;;;;;5008767;28;20132;-63
2022/11/30 01:23:41;;;;;;;66.78;24.98;;;6.30;99.90;;;;;;5005821;28;20101;-62
2022/11/30 01:26:07;;;;;;;75.13;26.27;;;6.30;99.90;;;;;;5006770;28;20478;-62
2022/11/30 01:28:33;;;;;;;73.18;26.58;;;6.30;99.90;;;;;;5003266;28;20041;-62
2022/11/30 01:31:01;;;;;;;60.40;25.17;;;6.30;99.90;;;;;;5006310;28;20042;-62
2022/11/30 01:33:27;;;;;;;67.65;25.05;;;6.40;99.90;;;;;;5003971;28;20485;-63
2022/11/30 01:36:00;;;;;;;63.80;25.83;;;6.40;99.90;;;;;;5006889;28;20065;-62
2022/11/30 01:38:29;;;;;;;64.68;25.02;;;6.40;99.90;;;;;;5004743;28;20049;-63
2022/11/30 01:40:55;;;;;;;65.63;26.93;;;6.40;99.90;;;;;;5010016;28;20053;-62
2022/11/30 01:43:20;;;;;;;62.67;25.42;;;6.40;99.90;;;;;;5009221;28;20050;-62
2022/11/30 01:45:48;;;;;;;69.55;26.58;;;6.40;99.90;;;;;;5010286;28;20500;-62
2022/11/30 01:48:13;;;;;;;65.57;25.67;;;6.40;99.90;;;;;;5006430;28;20077;-63
2022/11/30 01:50:39;;;;;;;66.88;26.70;;;6.40;99.90;;;;;;5008529;28;20076;-62
2022/11/30 01:53:08;;;;;;;64.80;24.67;;;6.40;99.90;;;;;;5010910;28;20137;-62
2022/11/30 01:55:41;;;;;;;65.15;25.85;;;6.40;99.90;;;;;;5011378;28;20072;-62
2022/11/30 01:58:11;;;;;;;69.45;26.92;;;6.40;99.90;;;;;;5004114;28;20038;-63
2022/11/30 02:00:38;;;;;;;64.47;26.00;;;6.40;99.90;;;;;;5004700;28;20049;-62
2022/11/30 02:03:20;;;;;;;66.32;25.65;;;6.40;99.90;;;;;;5010002;28;20045;-63
2022/11/30 02:05:47;;;;;;;62.90;25.38;;;6.40;99.90;;;;;;5002913;28;20038;-63
2022/11/30 02:08:13;;;;;;;62.35;26.23;;;6.40;99.90;;;;;;4995110;28;20164;-62
2022/11/30 02:10:42;;;;;;;60.63;24.88;;;6.40;99.90;;;;;;5007900;28;20039;-62
2022/11/30 02:13:40;;;;;;;55.20;24.20;;;6.40;99.90;;;;;;5006092;28;20065;-62
2022/11/30 02:16:24;;;;;;;64.68;25.50;;;6.40;99.90;;;;;;5010670;28;20156;-62
2022/11/30 02:19:12;;;;;;;63.30;25.25;;;6.40;99.90;;;;;;5008488;28;20128;-63
2022/11/30 02:22:11;;;;;;;66.78;25.50;;;6.40;99.90;;;;;;5002969;28;20056;-62
2022/11/30 02:25:18;;;;;;;59.35;25.00;;;6.40;99.90;;;;;;5007967;28;20045;-63
2022/11/30 02:27:47;;;;;;;61.88;25.00;;;6.40;99.90;;;;;;5002855;28;20057;-62
2022/11/30 02:30:18;;;;;;;61.80;25.58;;;6.40;99.90;;;;;;5007472;28;20037;-61
2022/11/30 02:32:50;;;;;;;57.95;25.27;;;6.40;99.90;;;;;;5009549;28;20037;-62
2022/11/30 02:35:19;;;;;;;59.33;24.85;;;6.40;99.90;;;;;;5012306;28;20049;-63
2022/11/30 02:37:45;;;;;;;63.65;26.13;;;6.40;99.90;;;;;;5006899;28;20052;-63
2022/11/30 02:40:14;;;;;;;65.00;27.17;;;6.40;99.90;;;;;;5007937;28;20616;-62
2022/11/30 02:42:39;;;;;;;67.15;25.50;;;6.40;99.90;;;;;;5009450;28;20121;-62
2022/11/30 02:45:07;;;;;;;59.00;25.42;;;6.40;99.90;;;;;;5011984;28;20153;-61
2022/11/30 02:47:50;;;;;;;57.88;24.25;;;6.40;99.90;;;;;;5005383;28;20033;-62
2022/11/30 02:50:27;;;;;;;61.42;25.25;;;6.40;99.90;;;;;;5007731;28;20390;-62
2022/11/30 02:52:53;;;;;;;63.95;26.10;;;6.40;99.90;;;;;;5006755;28;20589;-62
2022/11/30 02:55:19;;;;;;;62.55;25.33;;;6.40;99.90;;;;;;5008257;28;20494;-62
2022/11/30 02:57:46;;;;;;;59.10;24.85;;;6.40;99.90;;;;;;5005116;28;20080;-63
2022/11/30 03:00:12;;;;;;;56.45;25.42;;;6.40;99.90;;;;;;5007442;28;20600;-64
2022/11/30 03:02:39;;;;;;;57.80;25.27;;;6.40;99.90;;;;;;5006792;28;20124;-62
2022/11/30 03:05:06;;;;;;;54.10;24.92;;;6.40;99.90;;;;;;5008903;28;20046;-62
2022/11/30 03:07:31;;;;;;;55.63;24.27;;;6.40;99.90;;;;;;5004212;28;20462;-64
2022/11/30 03:09:58;;;;;;;58.08;24.48;;;6.40;99.90;;;;;;5008879;28;20038;-63
2022/11/30 03:12:24;;;;;;;50.55;22.80;;;6.40;99.90;;;;;;5008209;28;20058;-63
2022/11/30 03:14:50;;;;;;;48.42;22.83;;;6.40;99.90;;;;;;5004487;28;20430;-62
2022/11/30 03:17:16;;;;;;;51.30;22.70;;;6.30;99.90;;;;;;5008970;28;20046;-62
2022/11/30 03:19:41;;;;;;;52.33;22.70;;;6.40;99.90;;;;;;5007846;28;20096;-63
2022/11/30 03:22:07;;;;;;;52.50;22.27;;;6.30;99.90;;;;;;5008667;28;20058;-62
2022/11/30 03:24:32;;;;;;;52.97;22.98;;;6.30;99.90;;;;;;5008961;28;20045;-63
2022/11/30 03:26:58;;;;;;;49.50;22.35;;;6.30;99.90;;;;;;5005151;28;20040;-62
2022/11/30 03:29:24;;;;;;;51.28;22.23;;;6.30;99.90;;;;;;5006441;28;20038;-63
2022/11/30 03:31:49;;;;;;;46.58;20.73;;;6.40;99.90;;;;;;5017253;28;20565;-63
2022/11/30 03:34:15;;;;;;;50.45;22.20;;;6.40;99.90;;;;;;5003552;28;20042;-63
2022/11/30 03:36:41;;;;;;;50.45;23.00;;;6.30;99.90;;;;;;4997094;28;20593;-63
2022/11/30 03:39:06;;;;;;;52.55;22.52;;;6.30;99.90;;;;;;5008385;28;20077;-62
2022/11/30 03:41:32;;;;;;;49.92;22.05;;;6.30;99.90;;;;;;5005728;28;20038;-62
2022/11/30 03:43:58;;;;;;;55.60;22.63;;;6.30;99.90;;;;;;5005436;28;20465;-62
2022/11/30 03:46:25;;;;;;;54.88;24.33;;;6.30;99.90;;;;;;5001402;28;20382;-62
2022/11/30 03:48:51;;;;;;;53.17;22.08;;;6.30;99.90;;;;;;5008514;28;20042;-62
2022/11/30 03:51:17;;;;;;;55.88;23.75;;;6.40;99.90;;;;;;5008450;28;20092;-61
2022/11/30 03:53:42;;;;;;;58.28;23.73;;;6.30;99.90;;;;;;5004209;28;20121;-62
2022/11/30 03:56:09;;;;;;;61.65;24.67;;;6.30;99.90;;;;;;5002886;28;20437;-62
2022/11/30 03:58:35;;;;;;;61.97;24.13;;;6.30;99.90;;;;;;5003309;28;20049;-62
2022/11/30 04:01:06;;;;;;;61.83;24.45;;;6.30;99.90;;;;;;4986082;28;20050;-63
2022/11/30 04:03:32;;;;;;;66.72;26.33;;;6.40;99.90;;;;;;5005931;28;20089;-62
2022/11/30 04:05:58;;;;;;;68.20;25.25;;;6.40;99.90;;;;;;5001997;28;20037;-63
2022/11/30 04:08:25;;;;;;;66.88;26.42;;;6.30;99.90;;;;;;5001239;28;20034;-62
2022/11/30 04:10:55;;;;;;;70.72;26.63;;;6.40;99.90;;;;;;5006771;28;20057;-62
2022/11/30 04:13:21;;;;;;;64.60;25.42;;;6.40;99.90;;;;;;5006667;28;20485;-62
2022/11/30 04:15:48;;;;;;;60.67;24.23;;;6.30;99.90;;;;;;5007022;28;20026;-64
2022/11/30 04:18:14;;;;;;;71.60;26.98;;;6.30;99.90;;;;;;5004636;28;20060;-63
2022/11/30 04:20:40;;;;;;;71.78;26.05;;;6.30;99.90;;;;;;5007561;28;20549;-63
2022/11/30 04:23:06;;;;;;;73.88;26.23;;;6.40;99.90;;;;;;5005594;28;20037;-62
2022/11/30 04:25:31;;;;;;;74.55;25.77;;;6.40;99.90;;;;;;5007358;28;20042;-62
2022/11/30 04:27:57;;;;;;;70.18;26.27;;;6.30;99.90;;;;;;5006157;28;20058;-63
2022/11/30 04:30:23;;;;;;;72.15;25.10;;;6.30;99.90;;;;;;5005645;28;20080;-62
2022/11/30 04:32:48;;;;;;;64.65;24.30;;;6.30;99.90;;;;;;5007585;28;22041;-63
2022/11/30 04:35:14;;;;;;;70.13;24.98;;;6.30;99.90;;;;;;5008546;28;20121;-62
2022/11/30 04:37:39;;;;;;;64.93;25.92;;;6.40;99.90;;;;;;5000504;28;20041;-62
2022/11/30 04:40:06;;;;;;;60.75;24.30;;;6.30;99.90;;;;;;5004287;28;20049;-62
2022/11/30 04:42:31;;;;;;;63.15;25.33;;;6.30;99.90;;;;;;5003133;28;20501;-62
2022/11/30 04:44:57;;;;;;;61.22;25.20;;;6.30;99.90;;;;;;5005038;28;20061;-62
2022/11/30 04:47:22;;;;;;;65.05;25.60;;;6.30;99.90;;;;;;5007172;28;21039;-63
2022/11/30 04:49:48;;;;;;;66.35;25.15;;;6.30;99.90;;;;;;5002705;28;20049;-62
2022/11/30 04:52:14;;;;;;;67.50;24.75;;;6.30;99.90;;;;;;5006100;28;20037;-62
2022/11/30 04:54:40;;;;;;;55.85;22.63;;;6.30;99.90;;;;;;5006795;28;20363;-63
2022/11/30 04:57:05;;;;;;;56.42;22.27;;;6.30;99.90;;;;;;5003574;28;20072;-63
2022/11/30 04:59:31;;;;;;;62.63;24.30;;;6.30;99.90;;;;;;5009386;28;20034;-62
2022/11/30 05:01:57;;;;;;;60.47;22.38;;;6.30;99.90;;;;;;5004608;28;20038;-64
2022/11/30 05:04:23;;;;;;;57.20;22.60;;;6.30;99.90;;;;;;5002326;28;20038;-64
2022/11/30 05:06:48;;;;;;;56.45;23.55;;;6.30;99.90;;;;;;4996627;28;20520;-62
2022/11/30 05:09:14;;;;;;;63.17;24.73;;;6.30;99.90;;;;;;5006160;28;20394;-62
2022/11/30 05:11:39;;;;;;;59.95;23.10;;;6.30;99.90;;;;;;5007406;28;20068;-63
2022/11/30 05:14:05;;;;;;;66.00;23.65;;;6.20;99.90;;;;;;5010534;28;20481;-64
2022/11/30 05:16:30;;;;;;;62.28;24.40;;;6.20;99.90;;;;;;5001585;28;20444;-63
2022/11/30 05:18:56;;;;;;;63.00;22.73;;;6.20;99.90;;;;;;5007218;28;20444;-64
2022/11/30 05:21:22;;;;;;;61.03;24.45;;;6.20;99.90;;;;;;5006978;28;20045;-62
2022/11/30 05:23:47;;;;;;;56.45;23.90;;;6.20;99.90;;;;;;5010547;28;20084;-62
2022/11/30 05:26:14;;;;;;;63.22;24.42;;;6.20;99.90;;;;;;5007407;28;20137;-63
2022/11/30 05:28:39;;;;;;;60.40;23.45;;;6.10;99.90;;;;;;5008214;28;20437;-63
2022/11/30 05:31:05;;;;;;;58.47;22.42;;;6.20;99.90;;;;;;5012730;28;20037;-62
2022/11/30 05:33:32;;;;;;;60.33;24.95;;;6.20;99.90;;;;;;5003485;28;20478;-62
2022/11/30 05:35:57;;;;;;;57.95;22.65;;;6.20;99.90;;;;;;5005233;28;20512;-63
2022/11/30 05:38:23;;;;;;;62.65;23.30;;;6.20;99.90;;;;;;5007560;28;20046;-62
2022/11/30 05:40:49;;;;;;;49.50;22.85;;;6.20;99.90;;;;;;5002855;28;20124;-63
2022/11/30 05:43:15;;;;;;;61.40;22.17;;;6.10;99.90;;;;;;5007777;28;20042;-63
2022/11/30 05:45:40;;;;;;;57.03;22.58;;;6.10;99.90;;;;;;5006485;28;20050;-63
2022/11/30 05:48:06;;;;;;;56.33;22.25;;;6.10;99.90;;;;;;5008565;28;20041;-62
2022/11/30 05:50:32;;;;;;;56.03;22.48;;;6.10;99.90;;;;;;5012466;28;20072;-63
2022/11/30 05:52:59;;;;;;;60.53;22.67;;;6.10;99.90;;;;;;5007508;28;20044;-62
2022/11/30 05:55:26;;;;;;;49.78;21.85;;;6.10;99.90;;;;;;5007454;28;20100;-62
2022/11/30 05:57:51;;;;;;;54.00;21.55;;;6.10;99.90;;;;;;5007486;28;20112;-63
2022/11/30 06:00:17;;;;;;;60.88;23.00;;;6.10;99.90;;;;;;5003765;28;20029;-63
2022/11/30 06:02:43;;;;;;;56.55;22.17;;;6.10;99.90;;;;;;5003981;28;20128;-62
2022/11/30 06:05:09;;;;;;;55.45;23.38;;;6.10;99.90;;;;;;5008808;28;20133;-62
2022/11/30 06:07:34;;;;;;;61.92;22.95;;;6.10;99.90;;;;;;5004376;28;20045;-62
2022/11/30 06:10:00;;;;;;;68.32;23.05;;;6.10;99.90;;;;;;5005948;28;20042;-62
2022/11/30 06:12:25;;;;;;;56.42;22.42;;;6.10;99.90;;;;;;5010265;28;20033;-63
2022/11/30 06:14:51;;;;;;;56.35;22.90;;;6.10;99.90;;;;;;5008196;28;20061;-62
2022/11/30 06:17:17;;;;;;;49.80;21.80;;;6.10;99.90;;;;;;5012283;28;20046;-62
2022/11/30 06:19:42;;;;;;;49.35;22.25;;;6.10;99.90;;;;;;5011428;28;20450;-62
2022/11/30 06:22:08;;;;;;;51.08;21.27;;;6.10;99.90;;;;;;5008513;28;20124;-63
2022/11/30 06:24:33;;;;;;;56.13;21.77;;;6.10;99.90;;;;;;5012085;28;20121;-62
2022/11/30 06:26:59;;;;;;;45.60;20.05;;;6.10;99.90;;;;;;5008348;28;20077;-62
2022/11/30 06:29:24;;;;;;;54.17;21.35;;;6.10;99.90;;;;;;5008385;28;20034;-63
2022/11/30 06:31:50;;;;;;;47.78;20.58;;;6.10;99.90;;;;;;5007916;28;20045;-62
2022/11/30 06:34:16;;;;;;;54.35;21.92;;;6.10;99.90;;;;;;5007450;28;20456;-62
2022/11/30 06:36:41;;;;;;;49.25;20.70;;;6.10;99.90;;;;;;5008601;28;20033;-62
2022/11/30 06:39:10;;;;;;;42.35;18.95;;;6.10;99.90;;;;;;5004330;28;20494;-63
2022/11/30 06:41:36;;;;;;;48.20;19.83;;;6.10;99.90;;;;;;5009850;28;20048;-62
2022/11/30 06:44:01;;;;;;;42.28;18.73;;;6.00;99.90;;;;;;5012651;28;20062;-62
2022/11/30 06:46:27;;;;;;;46.08;20.08;;;6.00;99.90;;;;;;5012298;28;20053;-62
2022/11/30 06:48:53;;;;;;;44.33;19.27;;;6.00;99.90;;;;;;5009420;28;20038;-62
2022/11/30 06:51:19;;;;;;;44.90;18.35;;;6.00;99.90;;;;;;5013265;28;20072;-62
2022/11/30 06:53:45;;;;;;;36.15;17.95;;;6.00;99.90;;;;;;5003124;28;20034;-62
2022/11/30 06:56:11;;;;;;;40.13;18.25;;;6.00;99.90;;;;;;5015023;28;20050;-63
2022/11/30 06:58:38;;;;;;;35.65;17.25;;;6.00;99.90;;;;;;5008659;28;20157;-63
2022/11/30 07:01:05;;;;;;;36.53;17.35;;;6.00;99.90;;;;;;5004899;28;20049;-62
2022/11/30 07:03:31;;;;;;;39.40;18.38;;;6.00;99.90;;;;;;5008773;28;20041;-63
2022/11/30 07:05:57;;;;;;;39.13;18.42;;;6.00;99.90;;;;;;5011170;28;20042;-62
2022/11/30 07:08:23;;;;;;;35.85;17.52;;;5.90;99.90;;;;;;5010885;28;20578;-63
2022/11/30 07:10:49;;;;;;;36.38;17.77;;;5.90;99.90;;;;;;5006691;28;20113;-62
2022/11/30 07:13:17;;;;;;;33.55;17.88;;;6.00;99.90;;;;;;5009386;28;20061;-63
2022/11/30 07:15:44;;;;;;;32.85;17.60;;;5.90;99.90;;;;;;5006061;28;20076;-62
2022/11/30 07:18:10;;;;;;;31.95;16.85;;;6.00;99.90;;;;;;5007103;28;20042;-63
2022/11/30 07:20:37;;;;;;;34.50;16.88;;;6.00;99.90;;;;;;5008755;28;20410;-62
2022/11/30 07:26:08;;;;;;;33.42;15.90;;;5.90;99.90;;;;;;5011015;28;22938;-62
2022/11/30 07:28:42;;;;;;;31.63;15.80;;;5.90;99.90;;;;;;5006699;28;20034;-62
2022/11/30 07:31:23;;;;;;;30.40;15.50;;;5.90;99.90;;;;;;4989672;28;20089;-63
2022/11/30 07:33:49;;;;;;;28.75;15.30;;;5.90;99.90;;;;;;5009597;28;20038;-63
2022/11/30 07:36:17;;;;;;;28.02;15.68;;;5.90;99.90;;;;;;5020768;28;20042;-62
2022/11/30 07:38:44;;;;;;;29.23;16.20;;;5.90;99.90;;;;;;5010009;28;20112;-62
2022/11/30 07:41:10;;;;;;;25.35;14.68;;;5.90;99.90;;;;;;5004056;28;20041;-63
2022/11/30 07:43:35;;;;;;;27.70;14.90;;;5.90;99.90;;;;;;5011449;28;20068;-61
2022/11/30 07:46:02;;;;;;;28.30;15.98;;;5.90;99.90;;;;;;5006723;28;20038;-62
2022/11/30 07:48:28;;;;;;;32.90;17.23;;;5.90;99.90;;;;;;5002942;28;20045;-63
2022/11/30 07:51:00;;;;;;;31.50;16.10;;;5.90;99.90;;;;;;5011114;28;20042;-62
2022/11/30 07:53:26;;;;;;;28.65;15.35;;;5.90;99.90;;;;;;5023292;28;20091;-62
2022/11/30 07:55:51;;;;;;;31.70;16.45;;;5.90;99.90;;;;;;5011414;28;20037;-62
2022/11/30 07:58:17;;;;;;;30.33;16.35;;;5.90;99.90;;;;;;5010164;28;20382;-62
2022/11/30 08:00:42;;;;;;;31.42;16.75;;;5.90;99.90;;;;;;5006616;28;20478;-61
2022/11/30 08:03:08;;;;;;;32.10;16.45;;;5.90;99.90;;;;;;5011061;28;20057;-62
2022/11/30 08:05:33;;;;;;;31.75;16.95;;;5.90;99.90;;;;;;5010736;28;20038;-62
2022/11/30 08:07:59;;;;;;;34.15;17.27;;;5.90;99.90;;;;;;5030859;28;20037;-62
2022/11/30 08:10:24;;;;;;;35.38;16.90;;;5.90;99.90;;;;;;5006567;28;20038;-62
2022/11/30 08:12:50;;;;;;;34.78;17.30;;;5.90;99.90;;;;;;5023160;28;20068;-63
2022/11/30 08:15:16;;;;;;;34.63;17.48;;;5.90;99.90;;;;;;5011047;28;20034;-63
2022/11/30 08:17:41;;;;;;;35.67;18.15;;;5.90;99.90;;;;;;5008210;28;20037;-62
2022/11/30 08:20:10;;;;;;;36.15;17.83;;;5.90;99.90;;;;;;5003791;28;20046;-63
2022/11/30 08:22:35;;;;;;;32.80;17.17;;;5.90;99.90;;;;;;5015827;28;20039;-62
2022/11/30 08:25:01;;;;;;;32.65;17.73;;;5.90;99.90;;;;;;5011637;28;20053;-63
2022/11/30 08:27:27;;;;;;;33.60;17.15;;;5.90;99.90;;;;;;5009690;28;20873;-63
2022/11/30 08:29:52;;;;;;;34.95;17.42;;;5.90;99.90;;;;;;5009957;28;20084;-63
2022/11/30 08:32:18;;;;;;;33.92;17.67;;;5.90;99.90;;;;;;5008378;28;20097;-62
2022/11/30 08:34:44;;;;;;;32.08;16.27;;;5.90;99.90;;;;;;5004607;28;20045;-63
2022/11/30 08:37:10;;;;;;;31.98;16.60;;;5.90;99.90;;;;;;5010104;28;20068;-63
2022/11/30 08:39:35;;;;;;;26.10;15.50;;;5.90;99.90;;;;;;5009928;28;20034;-62
2022/11/30 08:42:01;;;;;;;27.27;15.38;;;5.90;99.90;;;;;;5011579;28;20529;-62
2022/11/30 08:44:27;;;;;;;21.90;13.48;;;5.90;99.90;;;;;;5018574;28;20049;-62
2022/11/30 08:46:53;;;;;;;23.48;14.48;;;5.90;99.90;;;;;;5011494;28;20069;-61
2022/11/30 08:49:20;;;;;;;25.27;14.57;;;5.90;99.90;;;;;;5010489;28;20075;-62
2022/11/30 08:51:46;;;;;;;26.77;14.73;;;5.90;99.90;;;;;;5009253;28;20092;-62
2022/11/30 08:54:12;;;;;;;25.45;14.43;;;5.90;99.90;;;;;;5006894;28;20524;-62
2022/11/30 08:56:37;;;;;;;25.42;14.10;;;6.00;99.90;;;;;;5010119;28;20168;-62
2022/11/30 08:59:03;;;;;;;26.88;14.38;;;6.00;99.90;;;;;;5012260;28;20045;-63
2022/11/30 09:01:29;;;;;;;23.90;14.02;;;6.00;99.90;;;;;;5008279;28;20042;-62
2022/11/30 09:03:56;;;;;;;26.40;14.77;;;6.00;99.90;;;;;;5009704;28;20045;-62
2022/11/30 09:06:24;;;;;;;27.95;15.63;;;6.00;99.90;;;;;;5009164;28;20056;-63
2022/11/30 09:08:51;;;;;;;26.95;14.57;;;6.00;99.90;;;;;;5011139;28;20049;-62
2022/11/30 09:11:23;;;;;;;25.58;14.75;;;6.00;99.90;;;;;;5008305;28;20405;-62
2022/11/30 09:13:49;;;;;;;24.60;14.73;;;6.00;99.90;;;;;;5007663;28;20072;-61
2022/11/30 09:16:17;;;;;;;29.73;16.30;;;6.00;99.90;;;;;;5014309;28;20037;-62
2022/11/30 09:18:43;;;;;;;29.35;15.93;;;5.90;99.90;;;;;;5008035;28;20524;-63
2022/11/30 09:21:11;;;;;;;26.63;14.90;;;6.00;99.90;;;;;;5007288;28;20045;-63
2022/11/30 09:23:38;;;;;;;27.52;14.98;;;6.00;99.90;;;;;;5004615;28;20038;-62
2022/11/30 09:26:10;;;;;;;26.58;15.60;;;6.00;99.90;;;;;;5005355;28;20054;-64
2022/11/30 09:28:36;;;;;;;28.73;16.13;;;6.10;99.90;;;;;;5000038;28;20045;-62
2022/11/30 09:31:03;;;;;;;29.10;15.90;;;6.10;99.90;;;;;;5010665;28;20049;-63
2022/11/30 09:33:30;;;;;;;27.35;15.25;;;6.10;99.90;;;;;;5009207;28;20040;-62
2022/11/30 09:36:01;;;;;;;29.80;17.05;;;6.20;99.90;;;;;;5006466;28;20045;-62
2022/11/30 09:38:27;;;;;;;27.02;15.68;;;6.20;99.90;;;;;;5006068;28;20050;-63
2022/11/30 09:41:00;;;;;;;29.30;15.73;;;6.20;99.90;;;;;;5000816;28;20046;-63
2022/11/30 09:43:41;;;;;;;30.15;15.93;;;6.20;99.90;;;;;;5010382;28;20057;-62
2022/11/30 09:46:08;;;;;;;30.05;16.27;;;6.20;99.90;;;;;;5007935;28;20568;-63
2022/11/30 09:48:59;;;;;;;30.35;16.27;;;6.20;99.90;;;;;;5025630;28;20136;-62
2022/11/30 09:51:53;;;;;;;31.27;17.30;;;6.30;99.90;;;;;;5001063;28;20061;-63
2022/11/30 09:54:34;;;;;;;31.05;17.08;;;6.30;99.90;;;;;;4987247;28;20050;-64
2022/11/30 09:57:19;;;;;;;30.58;16.90;;;6.30;99.90;;;;;;4988511;28;20038;-63
2022/11/30 09:59:53;;;;;;;35.63;17.85;;;6.30;99.90;;;;;;5006896;28;20050;-62
2022/11/30 10:02:21;;;;;;;31.92;17.08;;;6.40;99.90;;;;;;5018609;28;20056;-62
2022/11/30 10:04:46;;;;;;;38.40;18.52;;;6.40;99.90;;;;;;5006233;28;20397;-62
2022/11/30 10:07:37;;;;;;;38.10;19.08;;;6.50;99.90;;;;;;5007954;28;20046;-62
2022/11/30 10:10:29;;;;;;;30.55;16.92;;;6.50;99.90;;;;;;5002790;28;20117;-63
2022/11/30 10:13:18;;;;;;;28.08;15.43;;;6.60;99.90;;;;;;5011429;28;20045;-62
2022/11/30 10:16:02;;;;;;;27.95;16.48;;;6.60;99.90;;;;;;5011953;28;20046;-63
2022/11/30 10:18:40;;;;;;;29.80;16.10;;;6.70;99.90;;;;;;5007089;28;20042;-62
2022/11/30 10:21:28;;;;;;;27.48;15.55;;;6.70;99.90;;;;;;5013626;28;20104;-62
2022/11/30 10:24:23;;;;;;;30.23;16.70;;;6.70;99.90;;;;;;5007866;28;20049;-63
2022/11/30 10:26:56;;;;;;;28.42;16.88;;;6.70;99.90;;;;;;4977679;28;20046;-62
2022/11/30 10:29:38;;;;;;;34.00;17.27;;;6.70;99.90;;;;;;4998741;28;20042;-63
2022/11/30 10:32:19;;;;;;;30.98;16.63;;;6.60;99.90;;;;;;5014348;28;20058;-62
2022/11/30 10:35:00;;;;;;;36.45;17.80;;;6.60;99.90;;;;;;5009809;28;20895;-63
2022/11/30 10:37:35;;;;;;;34.75;17.77;;;6.60;99.90;;;;;;5009278;28;20064;-62
2022/11/30 10:40:03;;;;;;;34.30;17.67;;;6.60;99.90;;;;;;4998817;28;20049;-62
2022/11/30 10:42:46;;;;;;;32.25;17.05;;;6.50;99.90;;;;;;5014306;28;20050;-62
2022/11/30 10:45:17;;;;;;;37.00;18.77;;;6.60;99.90;;;;;;5011876;28;20064;-62
2022/11/30 10:48:13;;;;;;;33.10;17.05;;;6.50;99.90;;;;;;5014195;28;20070;-62
2022/11/30 10:50:40;;;;;;;37.20;18.73;;;6.60;99.90;;;;;;5009367;28;20397;-62
2022/11/30 10:53:05;;;;;;;34.85;18.45;;;6.60;99.90;;;;;;5013458;28;20470;-62
2022/11/30 10:55:39;;;;;;;35.95;18.90;;;6.60;99.90;;;;;;5006403;28;20038;-62
2022/11/30 10:58:26;;;;;;;35.97;18.35;;;6.60;99.90;;;;;;5004765;28;20045;-62
2022/11/30 11:01:05;;;;;;;35.45;18.27;;;6.60;99.90;;;;;;5007635;28;20046;-63
2022/11/30 11:03:31;;;;;;;41.70;19.25;;;6.60;99.90;;;;;;5006895;28;20038;-62
2022/11/30 11:06:06;;;;;;;36.53;17.60;;;6.70;99.90;;;;;;5007879;28;20124;-63
2022/11/30 11:08:32;;;;;;;41.03;20.15;;;6.60;99.90;;;;;;5013207;28;20596;-62
2022/11/30 11:10:57;;;;;;;41.63;18.80;;;6.70;99.90;;;;;;5009172;28;20044;-62
2022/11/30 11:13:41;;;;;;;39.28;19.75;;;6.60;99.90;;;;;;4991576;28;20536;-62
2022/11/30 11:16:10;;;;;;;38.42;19.48;;;6.70;99.90;;;;;;5003944;28;20042;-62
2022/11/30 11:18:50;;;;;;;38.47;19.25;;;6.70;99.90;;;;;;4995708;28;20033;-62
2022/11/30 11:21:18;;;;;;;40.72;19.42;;;6.70;99.90;;;;;;5007120;28;20042;-63
2022/11/30 11:23:45;;;;;;;40.67;19.00;;;6.60;99.90;;;;;;5012725;28;20044;-61
2022/11/30 11:26:18;;;;;;;39.35;19.83;;;6.60;99.90;;;;;;5007837;28;20034;-62
2022/11/30 11:28:46;;;;;;;40.40;19.02;;;6.60;99.90;;;;;;4996484;28;20042;-63
2022/11/30 11:31:47;;;;;;;43.38;21.05;;;6.70;99.90;;;;;;5013234;28;20490;-61
2022/11/30 11:34:34;;;;;;;46.63;22.40;;;6.70;99.90;;;;;;5012587;28;20041;-63
2022/11/30 11:37:22;;;;;;;48.17;21.63;;;6.70;99.90;;;;;;5012831;28;20045;-61
2022/11/30 11:40:07;;;;;;;49.28;22.73;;;6.70;99.90;;;;;;5009308;28;20061;-62
2022/11/30 11:42:44;;;;;;;50.53;22.98;;;6.70;99.90;;;;;;5008646;28;20397;-62
2022/11/30 11:45:17;;;;;;;54.80;23.27;;;6.70;99.90;;;;;;5013619;28;20069;-62
2022/11/30 11:47:44;;;;;;;45.70;22.02;;;6.70;99.90;;;;;;5012925;28;20049;-62
2022/11/30 11:50:29;;;;;;;49.40;22.60;;;6.70;99.90;;;;;;5010977;28;20034;-62
2022/11/30 11:53:21;;;;;;;51.63;22.75;;;6.70;99.90;;;;;;4995868;28;20042;-62
2022/11/30 11:56:10;;;;;;;55.00;22.67;;;6.70;99.90;;;;;;5010892;28;20048;-62
2022/11/30 11:58:46;;;;;;;49.50;22.33;;;6.80;99.90;;;;;;5007804;28;20041;-62
2022/11/30 12:01:35;;;;;;;53.42;23.05;;;6.80;99.90;;;;;;5010203;28;20077;-63
2022/11/30 12:04:39;;;;;;;46.65;20.98;;;6.80;99.90;;;;;;5013166;28;20042;-63
2022/11/30 12:07:31;;;;;;;51.13;21.38;;;6.80;99.90;;;;;;5007807;28;20121;-62
2022/11/30 12:10:06;;;;;;;49.63;21.33;;;6.80;99.90;;;;;;5044436;28;20068;-63
2022/11/30 12:12:32;;;;;;;44.35;20.40;;;6.90;99.90;;;;;;5010270;28;20421;-63
2022/11/30 12:15:00;;;;;;;51.85;22.13;;;6.90;99.90;;;;;;5012510;28;20038;-62
2022/11/30 12:17:45;;;;;;;49.72;21.77;;;6.90;99.90;;;;;;5012402;28;20038;-62
2022/11/30 12:20:27;;;;;;;43.85;20.73;;;6.90;99.90;;;;;;5011216;28;20441;-64
2022/11/30 12:23:04;;;;;;;57.67;23.98;;;6.90;99.90;;;;;;4991019;28;20758;-63
2022/11/30 12:25:50;;;;;;;58.67;23.48;;;6.80;99.90;;;;;;4993496;28;20035;-63
2022/11/30 12:28:30;;;;;;;58.90;23.90;;;6.80;99.90;;;;;;4992355;28;20453;-63
2022/11/30 12:31:16;;;;;;;63.00;24.85;;;6.80;99.90;;;;;;4999364;28;20038;-66
2022/11/30 12:34:09;;;;;;;64.18;26.20;;;6.80;99.90;;;;;;5009885;28;20136;-65
2022/11/30 12:37:02;;;;;;;70.47;26.70;;;6.80;99.90;;;;;;5012348;28;20056;-62
2022/11/30 12:39:43;;;;;;;74.38;28.00;;;6.80;99.90;;;;;;5011449;28;20077;-62
2022/11/30 12:42:20;;;;;;;73.53;27.02;;;6.80;99.90;;;;;;5010558;28;20041;-64
2022/11/30 12:45:11;;;;;;;76.57;26.27;;;6.90;99.90;;;;;;5009646;28;20125;-62
2022/11/30 12:48:03;;;;;;;67.53;26.40;;;6.80;99.90;;;;;;5009970;28;20398;-62
2022/11/30 12:50:52;;;;;;;67.15;26.17;;;6.80;99.90;;;;;;4981015;28;20086;-63
2022/11/30 12:53:31;;;;;;;72.65;27.88;;;6.80;99.90;;;;;;5011682;28;20038;-63